Aeroporto :
LOGIN :

Iscrizione | Disclaimer

   EN    FR    IT 

 










Sommario :    VFR   VFR Marginale   IFR   IFR Intensivo   IFR Molto Intensivo
Visibilità : 
Base nubi : 
>= 8 km
>= 3000ft
5 / 8 km
1000 / 3000 ft
1500m / 5 km
500 / 1000 ft
800 / 1500m
200 / 500 ft
< 800m
< 200 ft
Simboli :   Temporali  Nebbia  Neve Forte  Precipitazioni Forti  Vento > 20 kt
SIGMETs :   Varie  Temporali  Ghiacco  Turbolenza  Onda orograficha  Ceneri Vulcaniche






- Altitudine del aeroporto : 313 ft
- Codice IATA : LEH


LFOH - Le Havre Octeville

ULTIMO METAR :
  • 270730Z AUTO 19016KT 160V220 9999 BKN021 BKN029 BKN042 18/15 Q1009 TEMPO 3000 RA BKN007 OVC013 BECMG 27025G35KT

METARs OBSOLETI :
  • 270700Z AUTO 19013KT 160V220 9999 FEW013 SCT019 BKN060 17/15 Q1009 TEMPO 20027G41KT 3000 RA BKN007 OVC013
  • 270630Z AUTO 18014KT 9999 BKN014 BKN056 OVC066 17/15 Q1009 TEMPO 20027G41KT 3000 RA BKN007 OVC013
  • 270600Z AUTO 18013KT 150V210 9999 -RADZ BKN013 BKN038 BKN060 17/15 Q1010 TEMPO 20027G41KT 3000 RA BKN007 OVC013
  • 270530Z AUTO 18012KT 140V210 9999 -RA ///TCU 17/15 Q1010
  • 270500Z AUTO 19013KT 160V220 9999 FEW015/// OVC100/// ///TCU 17/15 Q1010

TAF TAF LFOH
Valido dal 27 a 06 ore il 28 a 06 ore UTC


270500Z 2706/2806 20017G27KT 9999 BKN025
TEMPO 2706/2709 20027G41KT 3000 RA BKN007 OVC013
BECMG 2708/2710 27025G35KT
TEMPO 2711/2717 4000 SHRA BKN025TCU
BECMG 2717/2719 27015KT
BECMG 2720/2723 21012KT
ATIS : +33 2 35 54 64 93



MetMap, La meteo Aeronautica in un colpo d'occhio ! - Copyright ORBIFLY Dicembre 2007 - Disclaimer

ORBIFLY MET'MAP TEAM :

Programmazione e sviluppo : Alexandra Zaïnal
Concezione : Baudouin d'Aumeries
Aiuto per la programmazione : Marc-Olivier Méhu
Supporto tecnico e logistico : Manuel Goepfert
Aiuto per la traduzione : Arnaldo La Scala

Contatto : metmap@orbifly.com




FONTI E CREDITI :

   NOAA